Time;durP1;ratioP1;P1;durP2;ratioP2;P2;SDS_P1;SDS_P2;PMS_P1;PMS_P2;Temp;Humidity;BMP_temperature;BMP_pressure;BME280_temperature;BME280_humidity;BME280_pressure;Samples;Min_cycle;Max_cycle;Signal;HPM_P1;HPM_P2
2024/03/16 00:00:07;;;;;;;44.83;8.70;;;12.30;99.90;;;;;;5061583;28;20726;-72
2024/03/16 00:02:34;;;;;;;41.47;8.77;;;12.30;99.90;;;;;;5060928;28;21371;-70
2024/03/16 00:05:00;;;;;;;59.05;9.75;;;12.30;99.90;;;;;;5078318;28;20194;-71
2024/03/16 00:07:26;;;;;;;49.17;9.27;;;12.30;99.90;;;;;;5061822;28;20187;-70
2024/03/16 00:09:52;;;;;;;49.33;9.73;;;12.20;99.90;;;;;;5061851;28;20328;-71
2024/03/16 00:12:18;;;;;;;41.35;9.15;;;12.30;99.90;;;;;;5062170;28;20225;-72
2024/03/16 00:14:48;;;;;;;51.53;9.30;;;12.30;99.90;;;;;;5062888;28;20247;-70
2024/03/16 00:17:14;;;;;;;38.88;8.90;;;12.30;99.90;;;;;;5062438;28;20226;-72
2024/03/16 00:19:39;;;;;;;44.22;9.85;;;12.30;99.90;;;;;;5062377;28;20213;-72
2024/03/16 00:22:05;;;;;;;40.22;9.82;;;12.20;99.90;;;;;;5061999;28;20240;-69
2024/03/16 00:24:31;;;;;;;45.80;10.27;;;12.20;99.90;;;;;;5059437;28;20621;-71
2024/03/16 00:26:57;;;;;;;40.80;9.88;;;12.20;99.90;;;;;;5062841;28;20205;-72
2024/03/16 00:29:23;;;;;;;39.10;10.13;;;12.20;99.90;;;;;;5062615;28;20191;-71
2024/03/16 00:31:49;;;;;;;47.38;10.48;;;12.10;99.90;;;;;;5062496;28;20202;-70
2024/03/16 00:34:15;;;;;;;40.47;9.52;;;12.10;99.90;;;;;;5060106;28;20198;-73
2024/03/16 00:36:41;;;;;;;41.15;10.60;;;12.00;99.90;;;;;;5061212;28;20181;-71
2024/03/16 00:39:15;;;;;;;44.45;10.85;;;12.00;99.90;;;;;;5061892;28;20677;-70
2024/03/16 00:41:44;;;;;;;47.78;11.57;;;11.90;99.90;;;;;;5062404;28;20193;-71
2024/03/16 00:44:10;;;;;;;40.92;11.25;;;11.90;99.90;;;;;;5061179;28;20271;-72
2024/03/16 00:46:36;;;;;;;49.33;11.93;;;11.80;99.90;;;;;;5061371;28;20183;-71
2024/03/16 00:49:02;;;;;;;47.03;12.30;;;11.80;99.90;;;;;;5061464;28;20205;-72
2024/03/16 00:51:28;;;;;;;50.90;12.25;;;11.70;99.90;;;;;;5061534;28;20236;-73
2024/03/16 00:53:57;;;;;;;43.33;11.35;;;11.60;99.90;;;;;;5062086;28;20190;-71
2024/03/16 00:56:23;;;;;;;42.33;12.10;;;11.50;99.90;;;;;;5062050;28;20190;-72
2024/03/16 00:58:49;;;;;;;44.70;11.23;;;11.50;99.90;;;;;;5061715;28;20182;-71
2024/03/16 01:01:14;;;;;;;41.25;11.77;;;11.50;99.90;;;;;;5061511;28;20186;-71
2024/03/16 01:03:40;;;;;;;44.03;11.60;;;11.40;99.90;;;;;;5061411;28;20209;-72
2024/03/16 01:06:06;;;;;;;43.75;12.02;;;11.40;99.90;;;;;;5061054;28;20661;-71
2024/03/16 01:08:32;;;;;;;42.55;12.00;;;11.40;99.90;;;;;;5061062;28;20187;-71
2024/03/16 01:10:58;;;;;;;48.03;12.43;;;11.40;99.90;;;;;;5061229;28;20238;-71
2024/03/16 01:13:24;;;;;;;50.88;11.82;;;11.40;99.90;;;;;;5061795;28;20193;-71
2024/03/16 01:15:50;;;;;;;43.78;11.38;;;11.40;99.90;;;;;;5061624;28;20190;-70
2024/03/16 01:18:16;;;;;;;44.10;12.10;;;11.30;99.90;;;;;;5061738;28;20549;-69
2024/03/16 01:20:44;;;;;;;47.28;11.80;;;11.30;99.90;;;;;;5058403;28;20197;-72
2024/03/16 01:23:17;;;;;;;41.55;10.10;;;11.30;99.90;;;;;;5061074;28;20323;-72
2024/03/16 01:25:43;;;;;;;44.67;10.52;;;11.30;99.90;;;;;;5060288;28;20201;-72
2024/03/16 01:28:08;;;;;;;44.78;10.50;;;11.30;99.90;;;;;;5060132;28;20194;-72
2024/03/16 01:30:34;;;;;;;36.25;10.25;;;11.30;99.90;;;;;;5060179;28;20679;-71
2024/03/16 01:33:00;;;;;;;40.75;10.18;;;11.30;99.90;;;;;;5061317;28;20747;-72
2024/03/16 01:35:26;;;;;;;38.13;9.60;;;11.30;99.90;;;;;;5060938;28;20278;-72
2024/03/16 01:37:52;;;;;;;48.00;9.93;;;11.30;99.90;;;;;;5057464;28;20182;-70
2024/03/16 01:40:24;;;;;;;41.28;9.05;;;11.30;99.90;;;;;;5059689;28;20313;-71
2024/03/16 01:42:52;;;;;;;41.33;9.32;;;11.30;99.90;;;;;;5061100;28;20554;-72
2024/03/16 01:45:18;;;;;;;35.63;7.95;;;11.20;99.90;;;;;;5060983;28;20194;-70
2024/03/16 01:47:44;;;;;;;33.13;8.10;;;11.20;99.90;;;;;;5060626;28;20277;-73
2024/03/16 01:50:10;;;;;;;35.72;8.57;;;11.10;99.90;;;;;;5061227;28;20290;-71
2024/03/16 01:52:36;;;;;;;27.67;8.45;;;11.10;99.90;;;;;;5061344;28;20245;-73
2024/03/16 01:55:04;;;;;;;33.83;8.80;;;10.90;99.90;;;;;;5061762;28;20689;-70
2024/03/16 01:57:30;;;;;;;15.80;5.68;;;10.80;99.90;;;;;;5061433;28;20182;-72
2024/03/16 01:59:55;;;;;;;16.73;5.13;;;10.70;99.90;;;;;;5061153;28;20195;-71
2024/03/16 02:02:39;;;;;;;12.65;3.83;;;10.50;99.90;;;;;;5061043;28;20190;-72
2024/03/16 02:05:06;;;;;;;11.48;3.58;;;10.30;99.90;;;;;;5060725;28;20669;-72
2024/03/16 02:07:36;;;;;;;9.85;3.40;;;10.10;99.90;;;;;;5061703;28;20555;-71
2024/03/16 02:10:04;;;;;;;9.50;3.08;;;10.00;99.90;;;;;;5061517;28;20226;-72
2024/03/16 02:12:31;;;;;;;8.38;2.80;;;9.80;99.90;;;;;;5061412;28;20299;-71
2024/03/16 02:14:57;;;;;;;8.02;2.58;;;9.70;99.90;;;;;;5060786;28;20260;-72
2024/03/16 02:17:23;;;;;;;5.53;1.95;;;9.60;99.90;;;;;;5063993;28;20237;-72
2024/03/16 02:19:49;;;;;;;4.57;2.00;;;9.50;99.90;;;;;;5064652;28;20178;-71
2024/03/16 02:22:15;;;;;;;6.38;2.45;;;9.50;99.90;;;;;;5064323;28;20191;-73
2024/03/16 02:24:41;;;;;;;9.25;2.42;;;9.40;99.90;;;;;;5064699;28;20651;-72
2024/03/16 02:27:07;;;;;;;6.75;2.33;;;9.30;99.90;;;;;;5079340;28;20225;-72
2024/03/16 02:29:35;;;;;;;10.57;2.30;;;9.30;99.90;;;;;;5063030;28;20226;-71
2024/03/16 02:32:07;;;;;;;5.72;1.95;;;9.30;99.90;;;;;;5063919;28;20332;-72
2024/03/16 02:34:35;;;;;;;6.22;2.10;;;9.20;99.90;;;;;;5064481;28;20617;-72
2024/03/16 02:37:03;;;;;;;4.25;2.08;;;9.20;99.90;;;;;;5064391;28;20267;-69
2024/03/16 02:39:32;;;;;;;11.23;2.38;;;9.20;99.90;;;;;;5064046;28;20179;-71
2024/03/16 02:41:58;;;;;;;5.55;2.33;;;9.20;99.90;;;;;;5064539;28;20187;-72
2024/03/16 02:44:25;;;;;;;11.32;2.47;;;9.20;99.90;;;;;;5062778;28;20224;-72
2024/03/16 02:46:52;;;;;;;6.03;2.00;;;9.10;99.90;;;;;;5059919;28;20192;-70
2024/03/16 02:49:17;;;;;;;12.13;2.55;;;9.10;99.90;;;;;;5062991;28;20572;-70
2024/03/16 02:51:43;;;;;;;7.40;2.53;;;9.10;99.90;;;;;;5063462;28;20225;-70
2024/03/16 02:54:11;;;;;;;7.93;2.47;;;9.10;99.90;;;;;;5062715;28;20201;-71
2024/03/16 02:56:37;;;;;;;8.10;2.20;;;9.10;99.90;;;;;;5064041;28;20768;-69
2024/03/16 02:59:03;;;;;;;8.25;1.90;;;9.00;99.90;;;;;;5062840;28;20198;-71
2024/03/16 03:01:29;;;;;;;8.95;2.35;;;9.00;99.90;;;;;;5078303;28;20186;-71
2024/03/16 03:03:56;;;;;;;9.48;1.88;;;8.90;99.90;;;;;;5063415;28;20203;-71
2024/03/16 03:06:22;;;;;;;8.50;1.60;;;8.90;99.90;;;;;;5064763;28;20207;-71
2024/03/16 03:08:48;;;;;;;5.05;1.67;;;8.90;99.90;;;;;;5064224;28;20543;-72
2024/03/16 03:11:14;;;;;;;8.82;2.08;;;8.90;99.90;;;;;;5063356;28;20280;-71
2024/03/16 03:13:40;;;;;;;9.63;2.20;;;8.90;99.90;;;;;;5063372;28;20182;-72
2024/03/16 03:16:06;;;;;;;6.75;1.90;;;8.80;99.90;;;;;;5063578;28;20227;-70
2024/03/16 03:18:31;;;;;;;5.95;1.77;;;8.80;99.90;;;;;;5063534;28;20639;-72
2024/03/16 03:21:00;;;;;;;5.95;1.70;;;8.80;99.90;;;;;;5058498;28;20185;-71
2024/03/16 03:23:25;;;;;;;9.10;1.80;;;8.80;99.90;;;;;;5063581;28;20191;-71
2024/03/16 03:25:51;;;;;;;11.45;2.33;;;8.80;99.90;;;;;;5063619;28;20248;-73
2024/03/16 03:28:17;;;;;;;9.00;2.30;;;8.80;99.90;;;;;;5061685;28;20222;-71
2024/03/16 03:30:43;;;;;;;7.32;2.30;;;8.80;99.90;;;;;;5063178;28;20182;-73
2024/03/16 03:33:10;;;;;;;13.05;3.38;;;8.70;99.90;;;;;;5063628;28;21341;-72
2024/03/16 03:35:38;;;;;;;10.40;2.83;;;8.70;99.90;;;;;;5063550;28;20913;-71
2024/03/16 03:38:04;;;;;;;12.07;2.70;;;8.60;99.90;;;;;;5063196;28;20976;-70
2024/03/16 03:40:30;;;;;;;13.15;3.60;;;8.70;99.90;;;;;;5061580;28;20193;-73
2024/03/16 03:42:59;;;;;;;16.75;3.53;;;8.60;99.90;;;;;;5078200;28;20293;-72
2024/03/16 03:45:38;;;;;;;16.52;4.07;;;8.60;99.90;;;;;;5062048;28;20209;-73
2024/03/16 03:48:24;;;;;;;21.75;4.22;;;8.60;99.90;;;;;;5061503;28;20209;-71
2024/03/16 03:50:51;;;;;;;26.13;4.55;;;8.50;99.90;;;;;;5078871;28;20204;-71
2024/03/16 03:53:19;;;;;;;22.80;4.40;;;8.50;99.90;;;;;;5062386;28;20242;-72
2024/03/16 03:55:45;;;;;;;29.48;4.40;;;8.50;99.90;;;;;;5061782;28;20661;-72
2024/03/16 03:58:11;;;;;;;33.33;4.75;;;8.40;99.90;;;;;;5062858;28;20191;-71
2024/03/16 04:00:37;;;;;;;31.55;5.20;;;8.40;99.90;;;;;;5077874;28;20193;-70
2024/03/16 04:03:06;;;;;;;25.27;4.03;;;8.40;99.90;;;;;;5062606;28;20206;-72
2024/03/16 04:05:33;;;;;;;25.25;3.85;;;8.40;99.90;;;;;;5062805;28;20191;-72
2024/03/16 04:07:59;;;;;;;25.23;4.65;;;8.30;99.90;;;;;;5061113;28;20247;-72
2024/03/16 04:10:25;;;;;;;30.25;3.95;;;8.40;99.90;;;;;;5077606;28;20701;-71
2024/03/16 04:12:50;;;;;;;33.70;4.72;;;8.30;99.90;;;;;;5062242;28;20213;-70
2024/03/16 04:15:16;;;;;;;21.80;4.13;;;8.30;99.90;;;;;;5060903;28;20205;-70
2024/03/16 04:17:42;;;;;;;27.67;4.45;;;8.30;99.90;;;;;;5062716;28;21116;-71
2024/03/16 04:20:14;;;;;;;24.10;4.55;;;8.20;99.90;;;;;;5061780;28;20293;-70
2024/03/16 04:22:41;;;;;;;23.92;4.72;;;8.20;99.90;;;;;;5061314;28;20673;-70
2024/03/16 04:25:09;;;;;;;17.85;3.78;;;8.20;99.90;;;;;;5062400;28;20684;-70
2024/03/16 04:27:35;;;;;;;22.98;4.28;;;8.10;99.90;;;;;;5077277;28;20206;-71
2024/03/16 04:30:02;;;;;;;25.85;4.72;;;8.10;99.90;;;;;;5062367;28;20198;-71
2024/03/16 04:32:28;;;;;;;24.83;4.15;;;8.10;99.90;;;;;;5060234;28;20218;-70
2024/03/16 04:34:54;;;;;;;22.13;3.85;;;8.10;99.90;;;;;;5062272;28;20186;-71
2024/03/16 04:37:20;;;;;;;16.50;3.22;;;8.10;99.90;;;;;;5062026;28;20190;-72
2024/03/16 04:39:47;;;;;;;22.13;3.38;;;8.10;99.90;;;;;;5076684;28;20654;-70
2024/03/16 04:42:13;;;;;;;14.45;2.72;;;8.10;99.90;;;;;;5063169;28;20210;-70
2024/03/16 04:44:40;;;;;;;19.70;2.83;;;8.10;99.90;;;;;;5076910;28;20217;-70
2024/03/16 04:47:06;;;;;;;16.50;3.15;;;8.10;99.90;;;;;;5061975;28;20588;-71
2024/03/16 04:49:32;;;;;;;20.88;3.22;;;8.10;99.90;;;;;;5061955;28;20183;-74
2024/03/16 04:51:58;;;;;;;13.48;2.50;;;8.10;99.90;;;;;;5044296;28;20743;-72
2024/03/16 04:54:23;;;;;;;11.02;2.25;;;8.10;99.90;;;;;;5061955;28;20658;-72
2024/03/16 04:56:49;;;;;;;8.52;2.10;;;8.00;99.90;;;;;;5062118;28;20576;-69
2024/03/16 04:59:15;;;;;;;11.85;2.38;;;8.10;99.90;;;;;;5061872;28;20292;-72
2024/03/16 05:01:41;;;;;;;14.85;2.65;;;8.00;99.90;;;;;;5061699;28;20676;-73
2024/03/16 05:04:09;;;;;;;10.27;2.25;;;8.00;99.90;;;;;;5076973;28;20277;-73
2024/03/16 05:06:35;;;;;;;15.15;2.47;;;8.00;99.90;;;;;;5060562;28;20190;-72
2024/03/16 05:09:10;;;;;;;13.20;2.88;;;8.00;99.90;;;;;;5075290;28;20209;-72
2024/03/16 05:11:37;;;;;;;15.98;2.40;;;8.00;99.90;;;;;;5061558;28;20214;-71
2024/03/16 05:14:06;;;;;;;15.00;2.45;;;8.00;99.90;;;;;;5062092;28;20286;-70
2024/03/16 05:16:38;;;;;;;13.13;2.60;;;8.00;99.90;;;;;;5061477;28;20214;-72
2024/03/16 05:19:04;;;;;;;16.95;2.65;;;8.10;99.90;;;;;;5061174;28;20198;-73
2024/03/16 05:21:34;;;;;;;13.20;2.50;;;8.10;99.90;;;;;;5061269;28;20183;-73
2024/03/16 05:24:00;;;;;;;16.75;2.70;;;8.10;99.90;;;;;;5076331;28;20232;-71
2024/03/16 05:26:28;;;;;;;15.63;2.80;;;8.00;99.90;;;;;;5061472;28;20191;-72
2024/03/16 05:28:54;;;;;;;18.75;3.10;;;8.10;99.90;;;;;;5061784;28;20272;-70
2024/03/16 05:31:20;;;;;;;14.50;2.88;;;8.10;99.90;;;;;;5061885;28;20190;-72
2024/03/16 05:33:46;;;;;;;22.57;3.60;;;8.10;99.90;;;;;;5075143;28;20446;-73
2024/03/16 05:36:15;;;;;;;15.48;3.38;;;8.10;99.90;;;;;;5061257;28;20203;-76
2024/03/16 05:38:43;;;;;;;15.43;2.80;;;8.20;99.90;;;;;;5058935;28;20278;-71
2024/03/16 05:41:12;;;;;;;13.52;2.50;;;8.10;99.90;;;;;;5061082;28;20194;-71
2024/03/16 05:43:38;;;;;;;19.42;3.03;;;8.10;99.90;;;;;;5061597;28;20190;-71
2024/03/16 05:46:04;;;;;;;16.17;2.40;;;8.20;99.90;;;;;;5060341;28;20719;-72
2024/03/16 05:48:30;;;;;;;16.67;2.50;;;8.10;99.90;;;;;;5060557;28;20190;-73
2024/03/16 05:50:56;;;;;;;11.43;2.53;;;8.10;99.90;;;;;;5077354;28;20222;-70
2024/03/16 05:53:23;;;;;;;18.13;2.60;;;8.10;99.90;;;;;;5065093;28;20217;-77
2024/03/16 05:55:49;;;;;;;10.50;2.30;;;8.20;99.90;;;;;;5048970;28;20217;-75
2024/03/16 05:58:16;;;;;;;14.68;2.67;;;8.20;99.90;;;;;;5063018;28;20251;-73
2024/03/16 06:00:42;;;;;;;9.80;2.20;;;8.20;99.90;;;;;;5036095;28;20263;-73
2024/03/16 06:03:07;;;;;;;16.40;2.47;;;8.20;99.90;;;;;;5065260;28;20194;-73
2024/03/16 06:05:35;;;;;;;19.52;3.10;;;8.20;99.90;;;;;;5065522;28;20221;-73
2024/03/16 06:08:04;;;;;;;15.10;2.47;;;8.20;99.90;;;;;;5064869;28;20703;-73
2024/03/16 06:10:31;;;;;;;12.60;2.22;;;8.20;99.90;;;;;;5064504;28;20226;-73
2024/03/16 06:12:57;;;;;;;13.40;2.13;;;8.20;99.90;;;;;;5079405;28;20300;-74
2024/03/16 06:15:23;;;;;;;10.60;2.00;;;8.20;99.90;;;;;;5046858;28;20674;-75
2024/03/16 06:17:49;;;;;;;8.40;1.83;;;8.20;99.90;;;;;;5064986;28;20273;-73
2024/03/16 06:20:18;;;;;;;7.85;2.10;;;8.20;99.90;;;;;;5064939;28;20320;-74
2024/03/16 06:22:44;;;;;;;11.23;2.40;;;8.20;99.90;;;;;;5064432;28;20195;-75
2024/03/16 06:25:12;;;;;;;11.10;2.05;;;8.20;99.90;;;;;;5063899;28;20251;-75
2024/03/16 06:27:49;;;;;;;7.32;1.80;;;8.30;99.90;;;;;;5064545;28;20542;-72
2024/03/16 06:30:19;;;;;;;8.70;1.85;;;8.20;99.90;;;;;;5063698;28;20208;-72
2024/03/16 06:33:05;;;;;;;9.00;2.20;;;8.20;99.90;;;;;;5064054;28;20218;-73
2024/03/16 06:35:32;;;;;;;11.55;2.08;;;8.20;99.90;;;;;;5063144;28;20201;-74
2024/03/16 06:37:58;;;;;;;11.82;2.03;;;8.30;99.90;;;;;;5046100;28;20193;-75
2024/03/16 06:40:25;;;;;;;6.95;1.90;;;8.30;99.90;;;;;;5064406;28;20225;-74
2024/03/16 06:42:51;;;;;;;15.38;2.17;;;8.30;99.90;;;;;;5064430;28;20646;-73
2024/03/16 06:45:17;;;;;;;9.93;2.22;;;8.30;99.90;;;;;;5064234;28;20179;-74
2024/03/16 06:47:43;;;;;;;11.75;2.20;;;8.30;99.90;;;;;;5064085;28;20273;-71
2024/03/16 06:50:10;;;;;;;12.60;2.30;;;8.30;99.90;;;;;;5079370;28;20282;-72
2024/03/16 06:52:36;;;;;;;8.27;1.95;;;8.40;99.90;;;;;;5064470;28;20221;-73
2024/03/16 06:55:03;;;;;;;10.18;2.30;;;8.30;99.90;;;;;;5064741;28;20187;-75
2024/03/16 06:57:29;;;;;;;14.07;2.20;;;8.40;99.90;;;;;;5062161;28;20190;-75
2024/03/16 06:59:55;;;;;;;8.13;2.10;;;8.40;99.90;;;;;;5064001;28;20669;-74
2024/03/16 07:02:21;;;;;;;11.90;2.00;;;8.40;99.90;;;;;;5064277;28;20209;-73
2024/03/16 07:04:49;;;;;;;12.82;1.85;;;8.50;99.90;;;;;;5063888;28;20202;-72
2024/03/16 07:07:15;;;;;;;11.73;1.67;;;8.50;99.90;;;;;;5062517;28;20282;-71
2024/03/16 07:09:40;;;;;;;8.43;1.83;;;8.50;99.90;;;;;;5063566;28;20321;-70
2024/03/16 07:12:06;;;;;;;4.85;1.63;;;8.50;99.90;;;;;;5063086;28;20214;-72
2024/03/16 07:14:32;;;;;;;8.52;1.63;;;8.50;99.90;;;;;;5063570;28;20190;-69
2024/03/16 07:16:58;;;;;;;6.45;1.60;;;8.60;99.90;;;;;;5063627;28;20201;-70
2024/03/16 07:19:24;;;;;;;7.03;1.60;;;8.60;99.90;;;;;;5063493;28;20186;-72
2024/03/16 07:21:53;;;;;;;7.75;1.65;;;8.60;99.90;;;;;;5063260;28;20187;-70
2024/03/16 07:24:19;;;;;;;6.80;1.92;;;8.60;99.90;;;;;;5077931;28;20535;-71
2024/03/16 07:26:45;;;;;;;6.57;1.98;;;8.70;99.90;;;;;;5063220;28;20205;-70
2024/03/16 07:29:11;;;;;;;5.57;1.85;;;8.70;99.90;;;;;;5061709;28;20613;-70
2024/03/16 07:31:37;;;;;;;5.78;1.60;;;8.70;99.90;;;;;;5063305;28;20308;-70
2024/03/16 07:34:06;;;;;;;7.90;1.50;;;8.70;99.90;;;;;;5077713;28;20190;-69
2024/03/16 07:36:31;;;;;;;8.00;1.50;;;8.80;99.90;;;;;;5062108;28;20212;-72
2024/03/16 07:38:57;;;;;;;7.20;1.58;;;8.80;99.90;;;;;;5062488;28;20180;-73
2024/03/16 07:41:23;;;;;;;8.63;1.77;;;8.90;99.90;;;;;;5062942;28;20189;-73
2024/03/16 07:43:52;;;;;;;8.20;1.40;;;8.90;99.90;;;;;;5062136;28;20282;-71
2024/03/16 07:46:19;;;;;;;9.20;1.70;;;8.90;99.90;;;;;;5062160;28;20266;-72
2024/03/16 07:48:45;;;;;;;10.02;1.80;;;9.00;99.90;;;;;;5062503;28;20179;-72
2024/03/16 07:51:14;;;;;;;8.38;1.55;;;9.00;99.90;;;;;;5062025;28;20190;-72
2024/03/16 07:53:39;;;;;;;6.38;1.75;;;9.10;99.90;;;;;;5077704;28;20232;-70
2024/03/16 07:56:09;;;;;;;5.90;1.75;;;9.10;99.90;;;;;;5061984;28;20549;-71
2024/03/16 07:58:36;;;;;;;8.30;1.92;;;9.10;99.90;;;;;;5062860;28;21099;-70
2024/03/16 08:01:04;;;;;;;13.57;2.00;;;9.10;99.90;;;;;;5062478;28;20186;-69
2024/03/16 08:03:30;;;;;;;9.50;2.00;;;9.10;99.90;;;;;;5061970;28;20199;-72
2024/03/16 08:06:01;;;;;;;7.85;1.90;;;9.10;99.90;;;;;;5062397;28;20216;-69
2024/03/16 08:08:27;;;;;;;9.15;2.00;;;9.00;99.90;;;;;;5062994;28;20746;-70
2024/03/16 08:10:54;;;;;;;18.40;2.40;;;9.10;99.90;;;;;;5062366;28;20311;-71
2024/03/16 08:13:20;;;;;;;14.93;2.40;;;9.20;99.90;;;;;;5062624;28;20682;-72
2024/03/16 08:15:46;;;;;;;12.32;2.30;;;9.30;99.90;;;;;;5061567;28;20223;-74
2024/03/16 08:18:12;;;;;;;17.48;1.98;;;9.30;99.90;;;;;;5062325;28;20192;-72
2024/03/16 08:20:38;;;;;;;11.75;2.40;;;9.40;99.90;;;;;;5062249;28;20532;-72
2024/03/16 08:23:03;;;;;;;9.13;1.77;;;9.50;99.90;;;;;;5061312;28;20198;-71
2024/03/16 08:25:32;;;;;;;8.10;1.90;;;9.50;99.90;;;;;;5062422;28;20556;-72
2024/03/16 08:27:58;;;;;;;10.43;1.90;;;9.50;99.90;;;;;;5060086;28;20206;-72
2024/03/16 08:30:25;;;;;;;8.98;1.92;;;9.60;99.90;;;;;;5056954;28;21117;-71
2024/03/16 08:32:52;;;;;;;12.10;1.92;;;9.50;99.90;;;;;;5061550;28;20240;-72
2024/03/16 08:35:18;;;;;;;11.70;1.88;;;9.50;99.90;;;;;;5061613;28;20194;-71
2024/03/16 08:37:44;;;;;;;13.90;2.17;;;9.40;99.90;;;;;;5060330;28;20191;-69
2024/03/16 08:40:12;;;;;;;14.73;2.28;;;9.40;99.90;;;;;;5062017;28;20183;-72
2024/03/16 08:42:40;;;;;;;12.45;2.17;;;9.40;99.90;;;;;;5062075;28;20315;-75
2024/03/16 08:45:07;;;;;;;14.23;2.40;;;9.40;99.90;;;;;;5075749;28;20205;-71
2024/03/16 08:47:36;;;;;;;8.60;2.10;;;9.50;99.90;;;;;;5061926;28;20198;-73
2024/03/16 08:50:04;;;;;;;15.88;2.10;;;9.60;99.90;;;;;;5047680;28;20254;-71
2024/03/16 08:52:30;;;;;;;8.68;2.05;;;9.60;99.90;;;;;;5061752;28;20279;-70
2024/03/16 08:54:56;;;;;;;8.90;1.88;;;9.70;99.90;;;;;;5061287;28;20198;-70
2024/03/16 08:57:23;;;;;;;12.63;2.08;;;9.70;99.90;;;;;;5077350;28;21213;-69
2024/03/16 08:59:48;;;;;;;6.15;1.40;;;9.70;99.90;;;;;;5059793;28;20235;-68
2024/03/16 09:02:14;;;;;;;9.60;1.70;;;9.80;99.90;;;;;;5061033;28;20190;-71
2024/03/16 09:04:40;;;;;;;6.55;2.10;;;9.80;99.90;;;;;;5060150;28;20642;-69
2024/03/16 09:07:06;;;;;;;9.73;1.67;;;9.90;99.90;;;;;;5061201;28;20251;-70
2024/03/16 09:09:32;;;;;;;6.88;1.40;;;9.80;99.90;;;;;;5061039;28;20307;-70
2024/03/16 09:11:58;;;;;;;10.65;1.90;;;9.90;99.90;;;;;;5061054;28;20246;-71
2024/03/16 09:14:24;;;;;;;7.68;1.70;;;9.90;99.90;;;;;;5059564;28;20322;-71
2024/03/16 09:16:49;;;;;;;12.38;1.80;;;9.90;99.90;;;;;;5061026;28;20182;-70
2024/03/16 09:19:15;;;;;;;10.93;2.13;;;10.00;99.90;;;;;;5076670;28;20222;-73
2024/03/16 09:21:41;;;;;;;10.48;1.50;;;10.00;99.90;;;;;;5061646;28;20655;-71
2024/03/16 09:24:07;;;;;;;13.23;1.65;;;10.10;99.90;;;;;;5046484;28;20293;-74
2024/03/16 09:26:34;;;;;;;6.20;1.60;;;10.20;99.90;;;;;;5059611;28;20194;-71
2024/03/16 09:29:00;;;;;;;4.10;1.27;;;10.20;99.90;;;;;;5059529;28;20214;-72
2024/03/16 09:31:26;;;;;;;12.75;1.50;;;10.20;99.90;;;;;;5060070;28;20262;-70
2024/03/16 09:33:52;;;;;;;5.03;1.48;;;10.20;99.90;;;;;;5060301;28;20296;-68
2024/03/16 09:36:18;;;;;;;9.63;1.73;;;10.20;99.90;;;;;;5060440;28;20693;-69
2024/03/16 09:38:43;;;;;;;7.88;1.50;;;10.10;99.90;;;;;;5061007;28;20214;-70
2024/03/16 09:41:18;;;;;;;6.57;1.63;;;10.10;99.90;;;;;;5061417;28;20190;-70
2024/03/16 09:43:45;;;;;;;7.43;1.75;;;10.10;99.90;;;;;;5059493;28;20194;-73
2024/03/16 09:46:11;;;;;;;6.32;1.60;;;10.20;99.90;;;;;;5059276;28;20311;-72
2024/03/16 09:48:37;;;;;;;6.88;1.23;;;10.30;99.90;;;;;;5060962;28;20207;-71
2024/03/16 09:51:04;;;;;;;7.82;1.60;;;10.40;99.90;;;;;;5060500;28;20240;-71
2024/03/16 09:53:32;;;;;;;9.70;1.80;;;10.50;99.90;;;;;;5060560;28;21327;-71
2024/03/16 09:56:07;;;;;;;9.13;1.88;;;10.60;99.90;;;;;;5060077;28;20182;-70
2024/03/16 09:58:42;;;;;;;6.55;1.58;;;10.70;99.90;;;;;;5059581;28;20256;-71
2024/03/16 10:01:09;;;;;;;10.85;1.77;;;10.80;99.90;;;;;;5059303;28;20190;-73
2024/03/16 10:03:35;;;;;;;7.80;1.50;;;10.80;99.90;;;;;;5059772;28;20202;-70
2024/03/16 10:06:07;;;;;;;9.55;1.80;;;10.70;99.90;;;;;;5060877;28;20366;-73
2024/03/16 10:08:36;;;;;;;10.77;1.70;;;10.60;99.90;;;;;;5059650;28;20201;-73
2024/03/16 10:11:15;;;;;;;4.45;1.42;;;10.50;99.90;;;;;;5074885;28;20303;-73
2024/03/16 10:13:58;;;;;;;6.75;1.95;;;10.50;99.90;;;;;;5059619;28;20221;-71
2024/03/16 10:16:25;;;;;;;10.10;1.70;;;10.50;99.90;;;;;;5060353;28;20272;-71
2024/03/16 10:18:53;;;;;;;14.43;1.98;;;10.50;99.90;;;;;;5060645;28;20330;-72
2024/03/16 10:21:19;;;;;;;9.80;1.90;;;10.50;99.90;;;;;;5060355;28;20191;-73
2024/03/16 10:23:45;;;;;;;10.27;1.83;;;10.50;99.90;;;;;;5060733;28;20187;-71
2024/03/16 10:26:13;;;;;;;11.35;1.75;;;10.50;99.90;;;;;;5059301;28;20327;-72
2024/03/16 10:28:42;;;;;;;6.50;1.63;;;10.50;99.90;;;;;;5075784;28;20191;-69
2024/03/16 10:31:09;;;;;;;11.80;2.00;;;10.60;99.90;;;;;;5060052;28;20183;-70
2024/03/16 10:33:38;;;;;;;12.10;2.00;;;10.70;99.90;;;;;;5074570;28;20693;-71
2024/03/16 10:36:12;;;;;;;8.77;1.30;;;10.90;99.90;;;;;;5059895;28;20225;-72
2024/03/16 10:38:41;;;;;;;8.98;1.88;;;11.00;99.90;;;;;;5078776;28;20635;-70
2024/03/16 10:41:11;;;;;;;8.32;1.42;;;10.90;99.90;;;;;;5062798;28;20281;-70
2024/03/16 10:43:38;;;;;;;7.13;1.45;;;10.90;99.90;;;;;;5063582;28;20198;-70
2024/03/16 10:46:11;;;;;;;11.00;1.92;;;10.90;99.90;;;;;;5063848;28;20218;-70
2024/03/16 10:48:37;;;;;;;6.85;1.60;;;11.00;99.90;;;;;;5063662;28;20218;-70
2024/03/16 10:51:08;;;;;;;12.77;2.00;;;11.00;99.90;;;;;;5063642;28;21058;-71
2024/03/16 10:53:35;;;;;;;9.43;1.80;;;11.00;99.90;;;;;;5063599;28;20218;-72
2024/03/16 10:56:02;;;;;;;14.02;2.13;;;10.90;99.90;;;;;;5079112;28;20731;-71
2024/03/16 10:58:29;;;;;;;10.18;2.17;;;10.80;99.90;;;;;;5063370;28;20186;-72
2024/03/16 11:01:02;;;;;;;12.57;1.95;;;10.90;99.90;;;;;;5063780;28;20214;-72
2024/03/16 11:03:31;;;;;;;9.13;1.70;;;11.00;99.90;;;;;;5063131;28;20201;-72
2024/03/16 11:06:14;;;;;;;13.27;2.30;;;11.00;99.90;;;;;;5063299;28;20225;-71
2024/03/16 11:08:46;;;;;;;7.95;1.77;;;10.90;99.90;;;;;;5079276;28;20194;-71
2024/03/16 11:11:20;;;;;;;12.45;2.10;;;10.90;99.90;;;;;;5063442;28;20313;-71
2024/03/16 11:13:55;;;;;;;11.65;2.50;;;10.90;99.90;;;;;;5063402;28;20306;-71
2024/03/16 11:16:35;;;;;;;9.43;1.52;;;10.90;99.90;;;;;;5062424;28;20507;-70
2024/03/16 11:19:07;;;;;;;6.45;1.52;;;11.10;99.90;;;;;;5063685;28;20218;-71
2024/03/16 11:21:38;;;;;;;7.15;1.52;;;11.20;99.90;;;;;;5063481;28;20600;-73
2024/03/16 11:24:13;;;;;;;5.63;1.80;;;11.20;99.90;;;;;;5063752;28;20301;-69
2024/03/16 11:26:40;;;;;;;12.55;1.38;;;11.20;99.90;;;;;;5062763;28;20192;-73
2024/03/16 11:29:18;;;;;;;9.05;2.00;;;11.30;99.90;;;;;;5063219;28;20655;-69
2024/03/16 11:31:53;;;;;;;10.15;1.80;;;11.30;99.90;;;;;;5061481;28;20279;-71
2024/03/16 11:34:21;;;;;;;8.50;1.90;;;11.30;99.90;;;;;;5063645;28;20277;-71
2024/03/16 11:36:54;;;;;;;10.65;1.83;;;11.30;99.90;;;;;;5061229;28;20246;-69
2024/03/16 11:39:25;;;;;;;6.90;1.70;;;11.30;99.90;;;;;;5063314;28;20205;-70
2024/03/16 11:41:54;;;;;;;8.13;2.00;;;11.40;99.90;;;;;;5062217;28;20314;-71
2024/03/16 11:44:20;;;;;;;10.00;1.92;;;11.30;99.90;;;;;;5062663;28;20200;-68
2024/03/16 11:46:47;;;;;;;10.07;2.10;;;11.30;99.90;;;;;;5076538;28;20210;-69
2024/03/16 11:49:15;;;;;;;9.48;1.88;;;11.20;99.90;;;;;;5060766;28;20548;-72
2024/03/16 11:51:47;;;;;;;6.90;1.90;;;11.20;99.90;;;;;;5063196;28;20563;-70
2024/03/16 11:54:14;;;;;;;13.98;2.38;;;11.20;99.90;;;;;;5062565;28;20642;-70
2024/03/16 11:56:41;;;;;;;13.38;2.38;;;11.30;99.90;;;;;;5060774;28;20198;-72
2024/03/16 11:59:12;;;;;;;8.52;1.95;;;11.50;99.90;;;;;;5077256;28;20360;-69
2024/03/16 12:01:41;;;;;;;12.88;2.47;;;11.40;99.90;;;;;;5062500;28;20640;-70
2024/03/16 12:04:09;;;;;;;10.90;2.40;;;11.30;99.90;;;;;;5062681;28;20654;-73
2024/03/16 12:06:36;;;;;;;15.25;2.30;;;11.20;99.90;;;;;;5062520;28;20190;-71
2024/03/16 12:09:03;;;;;;;8.82;1.85;;;11.30;99.90;;;;;;5075707;28;20704;-70
2024/03/16 12:11:29;;;;;;;11.85;2.00;;;11.20;99.90;;;;;;5062164;28;20275;-69
2024/03/16 12:14:11;;;;;;;15.60;2.42;;;11.20;99.90;;;;;;5062853;28;20191;-70
2024/03/16 12:16:38;;;;;;;6.85;1.65;;;11.30;99.90;;;;;;5061869;28;20560;-70
2024/03/16 12:19:10;;;;;;;12.88;2.10;;;11.40;99.90;;;;;;5062061;28;21248;-70
2024/03/16 12:21:41;;;;;;;8.32;1.98;;;11.60;99.90;;;;;;5077529;28;20194;-72
2024/03/16 12:24:10;;;;;;;11.23;1.95;;;11.70;99.90;;;;;;5062024;28;20198;-70
2024/03/16 12:26:38;;;;;;;12.02;2.00;;;11.70;99.90;;;;;;5062095;28;20178;-70
2024/03/16 12:29:08;;;;;;;20.00;3.10;;;11.70;99.90;;;;;;5060510;28;20285;-70
2024/03/16 12:31:36;;;;;;;8.10;1.63;;;11.70;99.90;;;;;;5062125;28;20259;-70
2024/03/16 12:34:01;;;;;;;7.70;2.00;;;11.70;99.90;;;;;;5061286;28;20678;-74
2024/03/16 12:36:27;;;;;;;8.77;2.22;;;11.80;99.90;;;;;;5061893;28;20182;-73
2024/03/16 12:38:53;;;;;;;8.93;2.05;;;11.90;99.90;;;;;;5062366;28;20187;-72
2024/03/16 12:41:19;;;;;;;10.85;1.70;;;12.00;99.90;;;;;;5061391;28;20195;-74
2024/03/16 12:43:44;;;;;;;15.25;2.20;;;12.00;99.90;;;;;;5061977;28;20186;-76
2024/03/16 12:46:10;;;;;;;14.57;2.60;;;12.10;99.90;;;;;;5060413;28;20620;-71